Terminal Aerodrome Forecast
Issued by NWS

Home | Current Version | Previous Version | Text Only | Print | Product List | Glossary On
Versions: 1 2 3 4 5 6 7 8 9 10 11 12
666
FTUS45 KABQ 192342
TAFROW
TAF
KROW 192342Z 2000/2024 18008KT P6SM BKN250
     FM200200 25006KT P6SM BKN250
     FM201900 21014G22KT P6SM BKN200=

USA.gov is the U.S. government's official web portal to all federal, state and local government web resources and services.